createdAt,value
2019-01-04T00:00:02.321Z,22.10
2019-01-04T00:01:02.555Z,28.90
2019-01-04T00:03:06.694Z,26.00
2019-01-04T00:04:06.927Z,25.30
2019-01-04T00:06:11.088Z,27.20
2019-01-04T00:07:11.323Z,27.40
2019-01-04T00:09:15.464Z,23.60
2019-01-04T00:10:15.692Z,27.00
2019-01-04T00:12:19.856Z,26.10
2019-01-04T00:13:20.088Z,27.10
2019-01-04T00:15:13.179Z,24.40
2019-01-04T00:16:13.412Z,24.50
2019-01-04T00:18:17.552Z,76.00
2019-01-04T00:19:17.784Z,39.10
2019-01-04T00:21:21.952Z,34.50
2019-01-04T00:22:22.180Z,24.60
2019-01-04T00:24:26.318Z,26.10
2019-01-04T00:25:26.549Z,24.90
2019-01-04T00:27:30.710Z,23.80
2019-01-04T00:28:30.943Z,27.00
2019-01-04T00:30:35.103Z,30.20
2019-01-04T00:31:35.338Z,31.50
2019-01-04T00:33:39.478Z,25.50
2019-01-04T00:34:39.708Z,25.70
2019-01-04T00:36:43.870Z,22.70
2019-01-04T00:37:44.100Z,24.90
2019-01-04T00:39:48.242Z,22.50
2019-01-04T00:40:48.472Z,25.10
2019-01-04T00:42:52.634Z,22.20
2019-01-04T00:43:52.866Z,20.00
2019-01-04T00:45:45.955Z,24.40
2019-01-04T00:46:46.186Z,24.00
2019-01-04T00:48:50.328Z,24.30
2019-01-04T00:49:50.561Z,25.60
2019-01-04T00:51:54.725Z,24.30
2019-01-04T00:52:54.958Z,27.00
2019-01-04T00:54:59.096Z,23.70
2019-01-04T00:55:59.328Z,24.30
2019-01-04T00:58:03.489Z,23.60
2019-01-04T00:59:03.723Z,23.30
2019-01-04T01:01:07.889Z,23.90
2019-01-04T01:02:08.120Z,26.30
2019-01-04T01:04:12.264Z,26.50
2019-01-04T01:05:12.495Z,23.30
2019-01-04T01:07:16.664Z,28.40
2019-01-04T01:08:16.896Z,25.00
2019-01-04T01:10:21.038Z,24.80
2019-01-04T01:11:21.273Z,25.60
2019-01-04T01:13:25.437Z,28.50
2019-01-04T01:14:25.665Z,70.30
2019-01-04T01:16:29.826Z,26.70
2019-01-04T01:17:30.059Z,27.40
2019-01-04T01:19:34.199Z,31.10
2019-01-04T01:20:34.431Z,28.70
2019-01-04T01:22:38.606Z,26.50
2019-01-04T01:23:38.842Z,29.40
2019-01-04T01:25:31.911Z,33.10
2019-01-04T01:26:32.147Z,33.50
2019-01-04T01:28:36.309Z,26.20
2019-01-04T01:29:36.542Z,25.20
2019-01-04T01:31:40.722Z,27.80
2019-01-04T01:32:40.953Z,25.90
2019-01-04T01:34:45.096Z,28.70
2019-01-04T01:35:45.335Z,30.70
2019-01-04T01:37:49.493Z,29.10
2019-01-04T01:38:49.726Z,26.90
2019-01-04T01:40:53.870Z,33.10
2019-01-04T01:41:54.105Z,27.00
2019-01-04T01:43:58.268Z,26.60
2019-01-04T01:44:58.500Z,25.40
2019-01-04T01:47:02.665Z,25.40
2019-01-04T01:48:02.898Z,31.90
2019-01-04T01:50:07.039Z,27.30
2019-01-04T01:51:07.271Z,32.60
2019-01-04T01:53:11.433Z,28.00
2019-01-04T01:54:11.670Z,28.10
2019-01-04T01:56:15.807Z,29.80
2019-01-04T01:57:16.040Z,26.50
2019-01-04T01:59:20.209Z,26.50
2019-01-04T02:00:20.442Z,27.20
2019-01-04T02:02:24.581Z,28.30
2019-01-04T02:03:24.815Z,31.30
2019-01-04T02:05:17.911Z,27.40
2019-01-04T02:06:18.138Z,27.60
2019-01-04T02:08:22.296Z,33.20
2019-01-04T02:09:22.573Z,29.20
2019-01-04T02:11:26.671Z,31.20
2019-01-04T02:12:26.905Z,25.50
2019-01-04T02:14:31.067Z,28.90
2019-01-04T02:15:31.302Z,26.80
2019-01-04T02:17:35.461Z,27.60
2019-01-04T02:18:35.676Z,29.50
2019-01-04T02:20:39.836Z,31.70
2019-01-04T02:21:40.070Z,30.50
2019-01-04T02:23:44.232Z,30.40
2019-01-04T02:24:44.466Z,31.20
2019-01-04T02:26:48.607Z,32.00
2019-01-04T02:27:48.843Z,31.90
2019-01-04T02:29:53.000Z,32.80
2019-01-04T02:30:53.231Z,29.10
2019-01-04T02:32:57.374Z,28.10
2019-01-04T02:33:57.609Z,27.10
2019-01-04T02:36:01.768Z,23.30
2019-01-04T02:37:01.999Z,29.30
2019-01-04T02:39:06.157Z,22.90
2019-01-04T02:40:06.389Z,28.00
2019-01-04T02:42:10.545Z,25.30
2019-01-04T02:43:10.764Z,30.80
2019-01-04T02:45:03.853Z,25.60
2019-01-04T02:46:04.085Z,27.00
2019-01-04T02:48:08.224Z,33.70
2019-01-04T02:49:08.461Z,31.40
2019-01-04T02:51:12.626Z,35.50
2019-01-04T02:52:12.860Z,30.60
2019-01-04T02:54:17.024Z,37.40
2019-01-04T02:55:17.260Z,37.60
2019-01-04T02:57:21.405Z,36.00
2019-01-04T02:58:21.638Z,37.20
2019-01-04T03:00:25.806Z,34.60
2019-01-04T03:01:26.041Z,36.10
2019-01-04T03:03:30.193Z,33.30
2019-01-04T03:04:30.428Z,35.50
2019-01-04T03:06:34.590Z,37.10
2019-01-04T03:07:34.828Z,34.90
2019-01-04T03:09:38.993Z,38.40
2019-01-04T03:10:39.228Z,38.00
2019-01-04T03:12:43.399Z,36.10
2019-01-04T03:13:43.605Z,39.00
2019-01-04T03:15:36.700Z,36.60
2019-01-04T03:16:36.939Z,33.80
2019-01-04T03:18:41.092Z,37.70
2019-01-04T03:19:41.327Z,37.80
2019-01-04T03:21:45.505Z,38.80
2019-01-04T03:22:45.732Z,33.80
2019-01-04T03:24:49.897Z,35.40
2019-01-04T03:25:50.134Z,36.20
2019-01-04T03:27:54.281Z,35.80
2019-01-04T03:28:54.515Z,33.60
2019-01-04T03:30:58.678Z,38.10
2019-01-04T03:31:58.910Z,39.30
2019-01-04T03:34:03.050Z,36.40
2019-01-04T03:35:03.281Z,33.70
2019-01-04T03:37:07.447Z,38.40
2019-01-04T03:38:07.674Z,38.60
2019-01-04T03:40:11.839Z,37.10
2019-01-04T03:41:12.078Z,39.00
2019-01-04T03:43:16.217Z,36.40
2019-01-04T03:44:16.446Z,36.00
2019-01-04T03:46:20.612Z,41.20
2019-01-04T03:47:20.840Z,38.00
2019-01-04T03:49:24.981Z,37.90
2019-01-04T03:50:25.212Z,38.00
2019-01-04T03:52:29.377Z,37.60
2019-01-04T03:53:29.607Z,40.60
2019-01-04T03:55:22.702Z,35.60
2019-01-04T03:56:22.930Z,35.60
2019-01-04T03:58:27.075Z,36.20
2019-01-04T03:59:27.302Z,40.10
2019-01-04T04:01:31.464Z,35.20
2019-01-04T04:02:31.693Z,36.90
2019-01-04T04:04:35.835Z,38.20
2019-01-04T04:05:36.069Z,36.00
2019-01-04T04:07:40.229Z,34.00
2019-01-04T04:08:40.462Z,34.20
2019-01-04T04:10:44.628Z,31.20
2019-01-04T04:11:44.860Z,34.70
2019-01-04T04:13:48.996Z,36.00
2019-01-04T04:14:49.233Z,32.50
2019-01-04T04:16:53.391Z,31.00
2019-01-04T04:17:53.620Z,31.20
2019-01-04T04:19:57.760Z,31.10
2019-01-04T04:20:57.991Z,32.20
2019-01-04T04:23:02.160Z,34.00
2019-01-04T04:24:02.390Z,31.40
2019-01-04T04:26:06.563Z,31.50
2019-01-04T04:27:06.795Z,29.50
2019-01-04T04:29:10.938Z,33.60
2019-01-04T04:30:11.169Z,28.90
2019-01-04T04:32:15.331Z,34.30
2019-01-04T04:33:15.559Z,32.70
2019-01-04T04:35:08.630Z,32.80
2019-01-04T04:36:08.863Z,34.30
2019-01-04T04:38:13.028Z,32.90
2019-01-04T04:39:13.257Z,34.60
2019-01-04T04:41:17.419Z,33.00
2019-01-04T04:42:17.649Z,32.40
2019-01-04T04:44:21.800Z,30.70
2019-01-04T04:45:22.029Z,32.50
2019-01-04T04:47:26.202Z,31.80
2019-01-04T04:48:26.423Z,33.10
2019-01-04T04:50:30.571Z,33.20
2019-01-04T04:51:30.800Z,33.00
2019-01-04T04:53:35.945Z,33.00
2019-01-04T04:54:35.202Z,34.90
2019-01-04T04:56:39.361Z,33.50
2019-01-04T04:57:39.592Z,35.30
2019-01-04T04:59:43.732Z,34.40
2019-01-04T05:00:43.971Z,38.40
2019-01-04T05:02:48.127Z,33.30
2019-01-04T05:03:48.357Z,35.20
2019-01-04T05:05:41.427Z,37.00
2019-01-04T05:06:41.661Z,36.00
2019-01-04T05:08:45.825Z,36.00
2019-01-04T05:09:46.056Z,35.30
2019-01-04T05:11:50.217Z,34.80
2019-01-04T05:12:50.449Z,34.20
2019-01-04T05:14:54.636Z,33.80
2019-01-04T05:15:54.820Z,31.50
2019-01-04T05:17:58.975Z,33.90
2019-01-04T05:18:59.207Z,32.30
2019-01-04T05:21:03.355Z,33.70
2019-01-04T05:22:03.585Z,32.00
2019-01-04T05:24:07.744Z,36.10
2019-01-04T05:25:07.978Z,34.60
2019-01-04T05:27:12.147Z,35.80
2019-01-04T05:28:12.345Z,32.60
2019-01-04T05:30:16.515Z,34.00
2019-01-04T05:31:16.742Z,33.70
2019-01-04T05:33:20.934Z,35.10
2019-01-04T05:34:21.134Z,33.10
2019-01-04T05:36:25.279Z,33.60
2019-01-04T05:37:25.506Z,35.00
2019-01-04T05:39:29.670Z,33.20
2019-01-04T05:40:29.908Z,34.30
2019-01-04T05:42:34.039Z,32.20
2019-01-04T05:43:34.271Z,37.20
2019-01-04T05:45:27.363Z,34.50
2019-01-04T05:46:27.593Z,32.80
2019-01-04T05:48:31.754Z,39.00
2019-01-04T05:49:31.984Z,38.10
2019-01-04T05:51:36.128Z,34.00
2019-01-04T05:52:36.359Z,34.80
2019-01-04T05:54:40.512Z,33.30
2019-01-04T05:55:40.750Z,36.90
2019-01-04T05:57:44.888Z,41.10
2019-01-04T05:58:45.120Z,36.90
2019-01-04T06:00:49.279Z,38.80
2019-01-04T06:01:49.509Z,36.90
2019-01-04T06:03:53.667Z,37.80
2019-01-04T06:04:53.898Z,37.90
2019-01-04T06:06:58.037Z,39.20
2019-01-04T06:07:58.270Z,38.60
2019-01-04T06:10:02.428Z,38.40
2019-01-04T06:11:02.659Z,34.70
2019-01-04T06:13:06.795Z,37.90
2019-01-04T06:14:07.027Z,40.30
2019-01-04T06:16:11.188Z,37.10
2019-01-04T06:17:11.419Z,40.40
2019-01-04T06:19:16.596Z,37.40
2019-01-04T06:20:16.822Z,36.40
2019-01-04T06:22:20.958Z,44.50
2019-01-04T06:23:21.193Z,37.90
2019-01-04T06:25:14.282Z,39.40
2019-01-04T06:26:14.512Z,41.50
2019-01-04T06:28:18.654Z,35.60
2019-01-04T06:29:18.883Z,38.10
2019-01-04T06:31:23.042Z,37.30
2019-01-04T06:32:23.273Z,36.70
2019-01-04T06:34:27.433Z,37.80
2019-01-04T06:35:27.664Z,38.20
2019-01-04T06:37:31.803Z,34.50
2019-01-04T06:38:32.033Z,34.70
2019-01-04T06:40:36.197Z,32.00
2019-01-04T06:41:36.429Z,33.40
2019-01-04T06:43:40.570Z,31.80
2019-01-04T06:44:40.802Z,33.10
2019-01-04T06:46:44.965Z,28.70
2019-01-04T06:47:45.198Z,34.00
2019-01-04T06:49:49.357Z,29.80
2019-01-04T06:50:49.587Z,34.00
2019-01-04T06:52:53.734Z,24.90
2019-01-04T06:53:53.964Z,28.50
2019-01-04T06:55:47.058Z,32.00
2019-01-04T06:56:47.281Z,26.90
2019-01-04T06:58:51.434Z,25.30
2019-01-04T06:59:51.656Z,26.30
2019-01-04T07:01:55.811Z,29.80
2019-01-04T07:02:56.044Z,30.50
2019-01-04T07:05:00.180Z,30.00
2019-01-04T07:06:00.493Z,29.20
2019-01-04T07:08:04.647Z,28.80
2019-01-04T07:09:04.880Z,25.60
2019-01-04T07:11:09.044Z,28.90
2019-01-04T07:12:09.271Z,29.50
2019-01-04T07:14:13.408Z,23.50
2019-01-04T07:15:13.640Z,22.60
2019-01-04T07:17:17.800Z,23.70
2019-01-04T07:18:18.034Z,24.00
2019-01-04T07:20:22.169Z,24.90
2019-01-04T07:21:22.399Z,25.00
2019-01-04T07:23:26.556Z,21.30
2019-01-04T07:24:26.787Z,23.40
2019-01-04T07:26:30.941Z,17.90
2019-01-04T07:27:31.176Z,20.30
2019-01-04T07:29:35.314Z,20.60
2019-01-04T07:30:35.547Z,20.90
2019-01-04T07:32:39.705Z,18.50
2019-01-04T07:33:39.936Z,21.30
2019-01-04T07:35:33.010Z,19.90
2019-01-04T07:36:33.245Z,20.90
2019-01-04T07:38:37.408Z,23.00
2019-01-04T07:39:37.639Z,21.00
2019-01-04T07:41:41.798Z,19.50
2019-01-04T07:42:42.061Z,20.10
2019-01-04T07:44:46.196Z,17.10
2019-01-04T07:45:46.430Z,15.40
2019-01-04T07:47:50.585Z,15.90
2019-01-04T07:48:50.818Z,16.20
2019-01-04T07:50:54.962Z,19.10
2019-01-04T07:51:55.189Z,16.70
2019-01-04T07:53:59.355Z,20.90
2019-01-04T07:54:59.586Z,17.40
2019-01-04T07:57:03.746Z,16.60
2019-01-04T07:58:03.977Z,14.50
2019-01-04T08:00:08.124Z,19.90
2019-01-04T08:01:08.353Z,14.20
2019-01-04T08:03:12.521Z,15.10
2019-01-04T08:04:12.755Z,14.20
2019-01-04T08:06:16.889Z,16.80
2019-01-04T08:07:17.124Z,17.00
2019-01-04T08:09:21.286Z,17.40
2019-01-04T08:10:21.516Z,18.00
2019-01-04T08:12:25.678Z,14.40
2019-01-04T08:13:25.911Z,14.50
2019-01-04T08:15:18.977Z,15.60
2019-01-04T08:16:19.207Z,18.90
2019-01-04T08:18:23.369Z,15.70
2019-01-04T08:19:23.598Z,14.10
2019-01-04T08:21:27.744Z,16.50
2019-01-04T08:22:27.975Z,15.10
2019-01-04T08:24:32.145Z,15.50
2019-01-04T08:25:32.377Z,15.10
2019-01-04T08:27:36.538Z,15.60
2019-01-04T08:28:36.769Z,16.70
2019-01-04T08:30:40.910Z,15.50
2019-01-04T08:31:41.142Z,15.10
2019-01-04T08:33:45.305Z,15.40
2019-01-04T08:34:45.546Z,13.80
2019-01-04T08:36:49.678Z,15.10
2019-01-04T08:37:49.923Z,14.80
2019-01-04T08:39:54.068Z,13.30
2019-01-04T08:40:54.301Z,13.20
2019-01-04T08:42:58.467Z,11.80
2019-01-04T08:43:58.702Z,11.40
2019-01-04T08:46:02.837Z,12.80
2019-01-04T08:47:03.067Z,15.50
2019-01-04T08:49:07.239Z,18.80
2019-01-04T08:50:07.525Z,22.60
2019-01-04T08:52:11.621Z,14.50
2019-01-04T08:53:11.888Z,14.20
2019-01-04T08:55:04.979Z,11.70
2019-01-04T08:56:05.198Z,16.40
2019-01-04T08:58:09.363Z,10.40
2019-01-04T08:59:09.593Z,14.70
2019-01-04T09:01:13.742Z,19.50
2019-01-04T09:02:13.966Z,12.80
2019-01-04T09:04:18.129Z,9.70
2019-01-04T09:05:18.361Z,11.20
2019-01-04T09:07:22.508Z,9.90
2019-01-04T09:08:22.740Z,9.20
2019-01-04T09:10:26.902Z,10.20
2019-01-04T09:11:27.135Z,9.20
2019-01-04T09:13:31.295Z,10.00
2019-01-04T09:14:31.525Z,8.10
2019-01-04T09:16:35.672Z,9.70
2019-01-04T09:17:35.901Z,9.10
2019-01-04T09:19:40.065Z,13.80
2019-01-04T09:20:40.299Z,9.00
2019-01-04T09:22:44.449Z,13.20
2019-01-04T09:23:44.678Z,12.30
2019-01-04T09:25:37.776Z,11.90
2019-01-04T09:26:38.009Z,18.70
2019-01-04T09:28:42.176Z,17.70
2019-01-04T09:29:42.406Z,25.20
2019-01-04T09:31:46.582Z,28.00
2019-01-04T09:32:46.822Z,14.00
2019-01-04T09:34:51.004Z,11.60
2019-01-04T09:35:51.217Z,10.90
2019-01-04T09:37:55.363Z,11.90
2019-01-04T09:38:55.595Z,10.70
2019-01-04T09:40:59.763Z,11.00
2019-01-04T09:42:00.001Z,12.50
2019-01-04T09:44:04.169Z,10.10
2019-01-04T09:45:04.405Z,11.40
2019-01-04T09:47:08.559Z,9.50
2019-01-04T09:48:08.794Z,9.50
2019-01-04T09:50:12.965Z,9.80
2019-01-04T09:51:13.202Z,11.70
2019-01-04T09:53:17.348Z,12.70
2019-01-04T09:54:17.585Z,11.80
2019-01-04T09:56:21.752Z,9.60
2019-01-04T09:57:23.626Z,12.00
2019-01-04T09:59:27.168Z,9.90
2019-01-04T10:00:27.405Z,13.20
2019-01-04T10:02:31.557Z,14.30
2019-01-04T10:03:31.790Z,12.00
2019-01-04T10:05:24.892Z,13.60
2019-01-04T10:06:25.127Z,9.60
2019-01-04T10:08:29.282Z,12.10
2019-01-04T10:09:29.518Z,10.70
2019-01-04T10:11:33.689Z,9.70
2019-01-04T10:12:33.922Z,13.00
2019-01-04T10:14:38.093Z,12.40
2019-01-04T10:15:38.330Z,11.50
2019-01-04T10:17:42.476Z,12.60
2019-01-04T10:18:42.712Z,13.80
2019-01-04T10:20:46.882Z,13.20
2019-01-04T10:21:47.117Z,16.80
2019-01-04T10:23:51.266Z,13.30
2019-01-04T10:24:51.500Z,12.80
2019-01-04T10:26:55.670Z,12.20
2019-01-04T10:27:55.906Z,13.30
2019-01-04T10:30:00.132Z,11.00
2019-01-04T10:31:00.300Z,9.60
2019-01-04T10:33:04.446Z,11.40
2019-01-04T10:34:04.680Z,12.80
2019-01-04T10:36:08.848Z,12.70
2019-01-04T10:37:09.082Z,11.50
2019-01-04T10:39:13.235Z,12.10
2019-01-04T10:40:13.468Z,11.20
2019-01-04T10:42:17.635Z,12.80
2019-01-04T10:43:17.871Z,11.90
2019-01-04T10:45:10.968Z,10.50
2019-01-04T10:46:11.200Z,9.70
2019-01-04T10:48:15.349Z,8.20
2019-01-04T10:49:15.586Z,12.50
2019-01-04T10:51:19.764Z,12.80
2019-01-04T10:52:19.987Z,10.80
2019-01-04T10:54:24.136Z,9.70
2019-01-04T10:55:24.370Z,13.30
2019-01-04T10:57:28.531Z,13.10
2019-01-04T10:58:28.763Z,9.60
2019-01-04T11:00:32.927Z,10.80
2019-01-04T11:01:33.166Z,11.40
2019-01-04T11:03:37.306Z,12.20
2019-01-04T11:04:37.538Z,12.30
2019-01-04T11:06:41.707Z,12.20
2019-01-04T11:07:41.944Z,9.60
2019-01-04T11:09:46.087Z,9.30
2019-01-04T11:10:46.318Z,10.60
2019-01-04T11:12:50.487Z,12.80
2019-01-04T11:13:50.720Z,9.90
2019-01-04T11:15:43.816Z,10.80
2019-01-04T11:16:44.049Z,10.20
2019-01-04T11:18:48.196Z,10.90
2019-01-04T11:19:48.435Z,13.70
2019-01-04T11:21:52.605Z,9.90
2019-01-04T11:22:52.842Z,8.60
2019-01-04T11:24:56.981Z,10.50
2019-01-04T11:25:57.212Z,12.00
2019-01-04T11:28:01.384Z,11.00
2019-01-04T11:29:01.615Z,10.90
2019-01-04T11:31:05.801Z,10.40
2019-01-04T11:32:06.029Z,10.60
2019-01-04T11:34:10.179Z,10.60
2019-01-04T11:35:10.411Z,9.10
2019-01-04T11:37:14.579Z,8.80
2019-01-04T11:38:14.812Z,11.00
2019-01-04T11:40:19.975Z,9.30
2019-01-04T11:41:20.204Z,10.30
2019-01-04T11:43:24.369Z,8.50
2019-01-04T11:44:24.603Z,9.70
2019-01-04T11:46:28.775Z,9.80
2019-01-04T11:47:29.008Z,8.30
2019-01-04T11:49:33.177Z,12.30
2019-01-04T11:50:33.413Z,9.00
2019-01-04T11:52:37.574Z,8.00
2019-01-04T11:53:37.810Z,9.90
2019-01-04T11:55:30.880Z,11.70
2019-01-04T11:56:31.115Z,8.90
2019-01-04T11:58:35.280Z,10.00
2019-01-04T11:59:35.518Z,9.80
2019-01-04T12:01:39.658Z,8.90
2019-01-04T12:02:39.890Z,7.60
2019-01-04T12:04:44.053Z,9.10
2019-01-04T12:05:44.285Z,11.10
2019-01-04T12:07:48.453Z,7.50
2019-01-04T12:08:48.686Z,9.10
2019-01-04T12:10:52.830Z,9.70
2019-01-04T12:11:53.065Z,7.50
2019-01-04T12:13:57.235Z,9.00
2019-01-04T12:14:57.462Z,9.60
2019-01-04T12:17:01.602Z,11.90
2019-01-04T12:18:01.834Z,9.60
2019-01-04T12:20:05.996Z,8.90
2019-01-04T12:21:06.229Z,9.20
2019-01-04T12:23:11.279Z,9.80
2019-01-04T12:24:10.621Z,9.40
2019-01-04T12:26:14.772Z,9.00
2019-01-04T12:27:15.002Z,10.50
2019-01-04T12:29:19.172Z,9.30
2019-01-04T12:30:19.407Z,9.60
2019-01-04T12:32:23.551Z,10.50
2019-01-04T12:33:23.786Z,10.50
2019-01-04T12:35:16.881Z,12.00
2019-01-04T12:36:17.118Z,11.50
2019-01-04T12:38:21.278Z,13.80
2019-01-04T12:39:21.511Z,14.30
2019-01-04T12:41:25.650Z,14.00
2019-01-04T12:42:25.882Z,14.80
2019-01-04T12:44:30.047Z,13.90
2019-01-04T12:45:30.279Z,14.20
2019-01-04T12:47:34.420Z,15.00
2019-01-04T12:48:34.654Z,13.50
2019-01-04T12:50:38.818Z,14.70
2019-01-04T12:51:39.050Z,14.90
2019-01-04T12:53:43.210Z,14.60
2019-01-04T12:54:43.442Z,17.40
2019-01-04T12:56:47.581Z,17.20
2019-01-04T12:57:47.823Z,20.20
2019-01-04T12:59:51.985Z,19.50
2019-01-04T13:00:52.219Z,20.00
2019-01-04T13:02:56.368Z,16.20
2019-01-04T13:03:56.602Z,15.20
2019-01-04T13:05:49.692Z,17.60
2019-01-04T13:06:49.923Z,17.70
2019-01-04T13:08:54.085Z,17.30
2019-01-04T13:09:54.320Z,19.20
2019-01-04T13:11:58.460Z,17.00
2019-01-04T13:12:58.694Z,15.90
2019-01-04T13:15:02.867Z,24.00
2019-01-04T13:16:03.097Z,19.50
2019-01-04T13:18:07.249Z,17.00
2019-01-04T13:19:07.484Z,18.50
2019-01-04T13:21:11.651Z,19.80
2019-01-04T13:22:11.884Z,22.40
2019-01-04T13:24:16.077Z,19.20
2019-01-04T13:25:16.305Z,19.70
2019-01-04T13:27:20.450Z,18.70
2019-01-04T13:28:20.685Z,19.50
2019-01-04T13:30:24.851Z,18.00
2019-01-04T13:31:25.086Z,20.10
2019-01-04T13:33:29.234Z,19.30
2019-01-04T13:34:29.467Z,21.80
2019-01-04T13:36:33.630Z,25.60
2019-01-04T13:37:33.863Z,24.70
2019-01-04T13:39:38.012Z,21.00
2019-01-04T13:40:38.248Z,19.90
2019-01-04T13:42:42.460Z,19.60
2019-01-04T13:43:42.668Z,24.20
2019-01-04T13:45:35.767Z,20.50
2019-01-04T13:46:35.994Z,20.20
2019-01-04T13:48:40.137Z,20.80
2019-01-04T13:49:40.369Z,19.00
2019-01-04T13:51:44.534Z,17.80
2019-01-04T13:52:44.769Z,17.10
2019-01-04T13:54:48.915Z,15.90
2019-01-04T13:55:49.148Z,15.20
2019-01-04T13:57:53.314Z,15.80
2019-01-04T13:58:53.550Z,17.20
2019-01-04T14:00:57.712Z,15.00
2019-01-04T14:01:57.945Z,15.20
2019-01-04T14:04:02.085Z,16.00
2019-01-04T14:05:02.322Z,14.40
2019-01-04T14:07:06.487Z,14.90
2019-01-04T14:08:06.720Z,17.20
2019-01-04T14:10:10.879Z,15.40
2019-01-04T14:11:11.098Z,19.20
2019-01-04T14:13:15.261Z,15.90
2019-01-04T14:14:15.490Z,15.10
2019-01-04T14:16:19.656Z,14.60
2019-01-04T14:17:19.889Z,14.20
2019-01-04T14:19:24.029Z,17.20
2019-01-04T14:20:24.279Z,15.60
2019-01-04T14:22:28.425Z,17.00
2019-01-04T14:23:28.990Z,15.70
2019-01-04T14:25:21.732Z,15.90
2019-01-04T14:26:21.967Z,14.50
2019-01-04T14:28:26.131Z,14.30
2019-01-04T14:29:26.366Z,18.10
2019-01-04T14:31:30.529Z,16.50
2019-01-04T14:32:30.764Z,15.70
2019-01-04T14:34:34.903Z,17.10
2019-01-04T14:35:35.177Z,18.70
2019-01-04T14:37:39.302Z,17.10
2019-01-04T14:38:39.529Z,16.60
2019-01-04T14:40:43.682Z,20.20
2019-01-04T14:41:43.917Z,16.00
2019-01-04T14:43:48.086Z,18.20
2019-01-04T14:44:48.319Z,16.00
2019-01-04T14:46:52.484Z,19.00
2019-01-04T14:47:52.721Z,20.00
2019-01-04T14:49:56.861Z,18.30
2019-01-04T14:50:57.098Z,18.10
2019-01-04T14:53:01.268Z,18.10
2019-01-04T14:54:01.498Z,15.90
2019-01-04T14:56:05.644Z,16.10
2019-01-04T14:57:05.875Z,17.40
2019-01-04T14:59:10.040Z,15.50
2019-01-04T15:00:10.306Z,15.50
2019-01-04T15:02:14.439Z,16.40
2019-01-04T15:03:14.676Z,16.20
2019-01-04T15:05:07.747Z,16.60
2019-01-04T15:06:07.978Z,16.30
2019-01-04T15:08:12.151Z,16.60
2019-01-04T15:09:12.385Z,16.00
2019-01-04T15:11:16.527Z,17.30
2019-01-04T15:12:16.762Z,16.60
2019-01-04T15:14:20.925Z,15.90
2019-01-04T15:15:21.157Z,16.80
2019-01-04T15:17:25.332Z,17.00
2019-01-04T15:18:25.566Z,17.70
2019-01-04T15:20:29.710Z,15.60
2019-01-04T15:21:29.941Z,18.00
2019-01-04T15:23:34.104Z,16.00
2019-01-04T15:24:34.336Z,16.20
2019-01-04T15:26:38.478Z,17.20
2019-01-04T15:27:38.711Z,17.80
2019-01-04T15:29:42.874Z,14.80
2019-01-04T15:30:43.110Z,17.50
2019-01-04T15:32:47.309Z,17.20
2019-01-04T15:33:47.539Z,15.50
2019-01-04T15:35:40.609Z,16.50
2019-01-04T15:36:40.838Z,15.70
2019-01-04T15:38:44.999Z,15.20
2019-01-04T15:39:45.231Z,17.00
2019-01-04T15:41:49.372Z,16.50
2019-01-04T15:42:49.604Z,15.00
2019-01-04T15:44:53.770Z,14.80
2019-01-04T15:45:54.004Z,15.00
2019-01-04T15:47:58.149Z,14.70
2019-01-04T15:48:58.377Z,14.30
2019-01-04T15:51:02.537Z,13.40
2019-01-04T15:52:02.772Z,15.10
2019-01-04T15:54:06.935Z,13.50
2019-01-04T15:55:07.171Z,15.70
2019-01-04T15:57:11.312Z,14.40
2019-01-04T15:58:11.544Z,15.20
2019-01-04T16:00:15.710Z,14.00
2019-01-04T16:01:15.942Z,13.70
2019-01-04T16:03:20.083Z,13.50
2019-01-04T16:04:20.313Z,13.60
2019-01-04T16:06:24.480Z,13.90
2019-01-04T16:07:24.710Z,15.30
2019-01-04T16:09:28.872Z,14.50
2019-01-04T16:10:29.106Z,14.60
2019-01-04T16:12:33.252Z,13.60
2019-01-04T16:13:33.505Z,14.60
2019-01-04T16:15:26.565Z,13.00
2019-01-04T16:16:26.794Z,13.00
2019-01-04T16:18:30.946Z,15.40
2019-01-04T16:19:31.176Z,13.50
2019-01-04T16:21:35.340Z,13.50
2019-01-04T16:22:35.571Z,15.20
2019-01-04T16:24:39.738Z,12.80
2019-01-04T16:25:39.975Z,13.70
2019-01-04T16:27:44.118Z,12.30
2019-01-04T16:28:44.348Z,13.30
2019-01-04T16:30:48.513Z,14.60
2019-01-04T16:31:48.748Z,12.30
2019-01-04T16:33:52.895Z,12.20
2019-01-04T16:34:53.127Z,12.70
2019-01-04T16:36:57.293Z,13.00
2019-01-04T16:37:57.526Z,13.70
2019-01-04T16:40:01.686Z,14.00
2019-01-04T16:41:01.925Z,13.50
2019-01-04T16:43:06.062Z,12.60
2019-01-04T16:44:07.344Z,13.00
2019-01-04T16:46:10.453Z,12.80
2019-01-04T16:47:10.688Z,12.20
2019-01-04T16:49:14.832Z,12.50
2019-01-04T16:50:15.068Z,12.90
2019-01-04T16:52:19.236Z,12.60
2019-01-04T16:53:19.472Z,11.70
2019-01-04T16:55:12.565Z,12.60
2019-01-04T16:56:12.799Z,12.50
2019-01-04T16:58:16.941Z,12.40
2019-01-04T16:59:17.176Z,12.30
2019-01-04T17:01:21.340Z,12.50
2019-01-04T17:02:21.569Z,12.40
2019-01-04T17:04:25.712Z,13.30
2019-01-04T17:05:25.944Z,13.20
2019-01-04T17:07:30.109Z,12.80
2019-01-04T17:08:30.340Z,12.60
2019-01-04T17:10:34.505Z,13.40
2019-01-04T17:11:34.732Z,13.70
2019-01-04T17:13:38.875Z,13.90
2019-01-04T17:14:39.108Z,14.90
2019-01-04T17:16:43.269Z,14.00
2019-01-04T17:17:43.503Z,14.90
2019-01-04T17:19:47.646Z,14.20
2019-01-04T17:20:47.874Z,16.10
2019-01-04T17:22:52.042Z,14.10
2019-01-04T17:23:52.275Z,17.50
2019-01-04T17:25:45.367Z,14.90
2019-01-04T17:26:45.600Z,15.90
2019-01-04T17:28:50.753Z,15.20
2019-01-04T17:29:50.985Z,14.40
2019-01-04T17:31:55.146Z,15.10
2019-01-04T17:32:55.380Z,15.30
2019-01-04T17:34:59.522Z,13.00
2019-01-04T17:35:59.755Z,14.80
2019-01-04T17:38:03.919Z,16.70
2019-01-04T17:39:04.151Z,15.20
2019-01-04T17:41:08.316Z,12.50
2019-01-04T17:42:08.550Z,14.80
2019-01-04T17:44:12.692Z,15.40
2019-01-04T17:45:12.926Z,13.80
2019-01-04T17:47:17.087Z,14.10
2019-01-04T17:48:17.319Z,14.10
2019-01-04T17:50:21.460Z,15.50
2019-01-04T17:51:21.692Z,15.00
2019-01-04T17:53:25.857Z,14.00
2019-01-04T17:54:26.092Z,13.80
2019-01-04T17:56:30.253Z,12.70
2019-01-04T17:57:30.489Z,13.40
2019-01-04T17:59:34.632Z,14.60
2019-01-04T18:00:34.860Z,14.20
2019-01-04T18:02:39.028Z,14.20
2019-01-04T18:03:39.261Z,15.90
2019-01-04T18:05:32.330Z,14.20
2019-01-04T18:06:32.562Z,16.70
2019-01-04T18:08:36.725Z,15.30
2019-01-04T18:09:36.960Z,16.80
2019-01-04T18:11:41.123Z,14.30
2019-01-04T18:12:41.359Z,14.10
2019-01-04T18:14:45.498Z,14.10
2019-01-04T18:15:45.730Z,13.70
2019-01-04T18:17:49.895Z,13.60
2019-01-04T18:18:50.125Z,14.40
2019-01-04T18:20:54.270Z,14.70
2019-01-04T18:21:54.506Z,14.50
2019-01-04T18:23:58.670Z,14.10
2019-01-04T18:24:58.917Z,14.60
2019-01-04T18:27:03.064Z,14.50
2019-01-04T18:28:03.296Z,15.10
2019-01-04T18:30:07.445Z,15.00
2019-01-04T18:31:07.679Z,16.50
2019-01-04T18:33:11.843Z,15.10
2019-01-04T18:34:12.077Z,15.40
2019-01-04T18:36:16.224Z,15.40
2019-01-04T18:37:16.455Z,14.30
2019-01-04T18:39:20.622Z,14.40
2019-01-04T18:40:20.854Z,14.90
2019-01-04T18:42:25.023Z,17.80
2019-01-04T18:43:25.253Z,16.20
2019-01-04T18:45:18.326Z,15.20
2019-01-04T18:46:18.557Z,14.90
2019-01-04T18:48:22.721Z,14.30
2019-01-04T18:49:22.952Z,14.50
2019-01-04T18:51:27.094Z,13.70
2019-01-04T18:52:27.328Z,13.20
2019-01-04T18:54:31.487Z,13.60
2019-01-04T18:55:31.719Z,13.20
2019-01-04T18:57:35.885Z,14.00
2019-01-04T18:58:36.113Z,13.60
2019-01-04T19:00:40.254Z,12.80
2019-01-04T19:01:40.487Z,13.60
2019-01-04T19:03:44.649Z,14.90
2019-01-04T19:04:44.882Z,14.50
2019-01-04T19:06:49.024Z,16.00
2019-01-04T19:07:49.257Z,14.90
2019-01-04T19:09:53.420Z,14.90
2019-01-04T19:10:53.652Z,16.50
2019-01-04T19:12:57.816Z,17.90
2019-01-04T19:13:58.052Z,16.60
2019-01-04T19:16:02.192Z,17.00
2019-01-04T19:17:02.424Z,17.10
2019-01-04T19:19:06.588Z,18.60
2019-01-04T19:20:06.820Z,17.60
2019-01-04T19:22:11.000Z,17.90
2019-01-04T19:23:11.232Z,19.60
2019-01-04T19:25:04.302Z,21.50
2019-01-04T19:26:04.536Z,21.60
2019-01-04T19:28:08.698Z,22.40
2019-01-04T19:29:08.931Z,24.90
2019-01-04T19:31:13.080Z,25.80
2019-01-04T19:32:13.315Z,27.10
2019-01-04T19:34:17.472Z,28.10
2019-01-04T19:35:17.710Z,26.90
2019-01-04T19:37:21.879Z,32.30
2019-01-04T19:38:22.114Z,29.70
2019-01-04T19:40:26.276Z,32.70
2019-01-04T19:41:26.510Z,27.30
2019-01-04T19:43:30.669Z,33.80